Ephratah, New York
Current Conditions -  °F | °C
As of 11:15 AM on Wednesday 26 Nov 2014 (Local Time) from KNY0 Reporting Station
Overcast Overcast  
Wind Chill: 24°   Ceiling: 2300
Heat Index: 32°   Visibility: 4mi
Dew Point: 26°   Wind: 9mph
Humidity: 78%   Direction: 30°NNE
Pressure: 30.13"   Gusts: NA
Location:  42.9271°N, 74.711°W
Report Text: KNY0 261615Z AUTO 03008KT 4SM BKN023 OVC030 00/M03 A3013 RMK AO2 T00001035
Loading
Personal Weather Stations






























Interactive Weather Map New forecast layout! Learn more

10-Day Weather Forecast

Advertisements
Track Severe Weather on mobile